Time;durP1;ratioP1;P1;durP2;ratioP2;P2;SDS_P1;SDS_P2;PMS_P1;PMS_P2;Temp;Humidity;BMP_temperature;BMP_pressure;BME280_temperature;BME280_humidity;BME280_pressure;Samples;Min_cycle;Max_cycle;Signal;HPM_P1;HPM_P2
2022/09/17 00:00:21;;;;;;;0.60;0.60;;;11.20;99.90;;;;;;5074698;28;20918;-66
2022/09/17 00:03:10;;;;;;;0.40;0.40;;;11.20;99.90;;;;;;5074673;28;20975;-67
2022/09/17 00:06:04;;;;;;;0.50;0.50;;;11.30;99.90;;;;;;5075245;28;20892;-67
2022/09/17 00:08:54;;;;;;;0.40;0.40;;;11.30;99.90;;;;;;5074542;28;20462;-67
2022/09/17 00:11:43;;;;;;;0.47;0.47;;;11.30;99.90;;;;;;5075153;28;20445;-67
2022/09/17 00:14:31;;;;;;;0.60;0.60;;;11.30;99.90;;;;;;5074751;28;20506;-67
2022/09/17 00:17:19;;;;;;;4.60;1.93;;;11.30;99.90;;;;;;5075323;28;20419;-71
2022/09/17 00:20:09;;;;;;;1.00;1.00;;;11.30;99.90;;;;;;5075106;28;20928;-67
2022/09/17 00:22:58;;;;;;;0.40;0.40;;;11.40;99.90;;;;;;5075285;28;20951;-67
2022/09/17 00:25:46;;;;;;;0.50;0.50;;;11.40;99.90;;;;;;5074893;28;20565;-66
2022/09/17 00:28:35;;;;;;;0.50;0.50;;;11.40;99.90;;;;;;5075014;28;20568;-67
2022/09/17 00:31:24;;;;;;;0.50;0.50;;;11.40;99.90;;;;;;5074646;28;20510;-66
2022/09/17 00:34:12;;;;;;;0.60;0.60;;;11.40;99.90;;;;;;5074462;28;20427;-66
2022/09/17 00:37:00;;;;;;;0.40;0.40;;;11.50;99.90;;;;;;5074457;28;20426;-67
2022/09/17 00:39:50;;;;;;;1.97;0.63;;;11.50;99.90;;;;;;5074376;28;20434;-67
2022/09/17 00:42:38;;;;;;;0.50;0.50;;;11.60;99.90;;;;;;5074918;28;20459;-67
2022/09/17 00:45:27;;;;;;;0.40;0.40;;;11.60;99.90;;;;;;5074241;28;20442;-69
2022/09/17 00:48:15;;;;;;;0.50;0.50;;;11.60;99.90;;;;;;5074199;28;20419;-70
2022/09/17 00:51:08;;;;;;;0.90;0.90;;;11.60;99.90;;;;;;5074691;28;20423;-67
2022/09/17 00:53:57;;;;;;;0.53;0.50;;;11.60;99.90;;;;;;5074189;28;20426;-67
2022/09/17 00:56:47;;;;;;;0.50;0.50;;;11.70;99.90;;;;;;5073525;28;21030;-67
2022/09/17 00:59:35;;;;;;;1.13;1.13;;;11.70;99.90;;;;;;5074197;28;20506;-67
2022/09/17 01:02:24;;;;;;;0.53;0.53;;;11.70;99.90;;;;;;5074528;28;20544;-66
2022/09/17 01:05:14;;;;;;;0.50;0.50;;;11.70;99.90;;;;;;5074137;28;20466;-68
2022/09/17 01:08:08;;;;;;;0.93;0.93;;;11.70;99.90;;;;;;5075429;28;20428;-67
2022/09/17 01:11:24;;;;;;;1.47;1.37;;;11.70;99.90;;;;;;5066426;28;20957;-68
2022/09/17 01:14:26;;;;;;;0.40;0.40;;;11.70;99.90;;;;;;5070528;28;20840;-67
2022/09/17 01:17:19;;;;;;;0.40;0.40;;;11.80;99.90;;;;;;5072607;28;20996;-68
2022/09/17 01:20:40;;;;;;;0.40;0.40;;;11.70;99.90;;;;;;5072291;28;20427;-67
2022/09/17 01:23:50;;;;;;;0.50;0.50;;;11.80;99.90;;;;;;5075187;28;20914;-67
2022/09/17 01:27:00;;;;;;;0.40;0.40;;;11.80;99.90;;;;;;5074036;28;20839;-67
2022/09/17 01:30:25;;;;;;;0.40;0.40;;;11.80;99.90;;;;;;5072216;28;20431;-68
2022/09/17 01:33:20;;;;;;;0.40;0.40;;;11.80;99.90;;;;;;5037498;28;20521;-67
2022/09/17 01:36:18;;;;;;;0.40;0.40;;;11.80;99.90;;;;;;5072225;28;20538;-68
2022/09/17 01:39:12;;;;;;;0.60;0.60;;;11.90;99.90;;;;;;5073926;28;20923;-69
2022/09/17 01:42:10;;;;;;;0.40;0.40;;;11.90;99.90;;;;;;5074434;28;20426;-68
2022/09/17 01:45:05;;;;;;;1.90;0.70;;;11.90;99.90;;;;;;5073354;28;20445;-68
2022/09/17 01:47:57;;;;;;;0.50;0.50;;;11.90;99.90;;;;;;5074441;28;20920;-68
2022/09/17 01:50:51;;;;;;;0.50;0.50;;;11.90;99.90;;;;;;5073284;28;20431;-67
2022/09/17 01:53:45;;;;;;;0.93;0.93;;;11.90;99.90;;;;;;5074511;28;20504;-67
2022/09/17 01:56:37;;;;;;;0.40;0.40;;;11.90;99.90;;;;;;5069679;28;20448;-69
2022/09/17 01:59:30;;;;;;;0.50;0.50;;;12.00;99.90;;;;;;5052835;28;20515;-67
2022/09/17 02:02:25;;;;;;;1.57;0.90;;;12.00;99.90;;;;;;5053068;28;20501;-67
2022/09/17 02:05:19;;;;;;;1.03;1.03;;;12.00;99.90;;;;;;5052952;28;20440;-68
2022/09/17 02:08:11;;;;;;;0.40;0.40;;;12.00;99.90;;;;;;5053129;28;20423;-68
2022/09/17 02:11:05;;;;;;;0.70;0.60;;;12.00;99.90;;;;;;5052460;28;20424;-68
2022/09/17 02:13:57;;;;;;;0.40;0.40;;;12.00;99.90;;;;;;5052550;28;20427;-68
2022/09/17 02:16:51;;;;;;;0.40;0.40;;;12.00;99.90;;;;;;5052462;28;20436;-67
2022/09/17 02:19:40;;;;;;;0.40;0.40;;;12.10;99.90;;;;;;5052748;28;20428;-68
2022/09/17 02:22:34;;;;;;;0.50;0.50;;;12.10;99.90;;;;;;5052132;28;20873;-68
2022/09/17 02:25:28;;;;;;;0.40;0.40;;;12.10;99.90;;;;;;5052292;28;20456;-67
2022/09/17 02:28:22;;;;;;;0.50;0.50;;;12.10;99.90;;;;;;5053142;28;20426;-68
2022/09/17 02:31:10;;;;;;;0.50;0.50;;;12.10;99.90;;;;;;5052307;28;20523;-68
2022/09/17 02:34:02;;;;;;;0.40;0.40;;;12.10;99.90;;;;;;5052770;28;20417;-67
2022/09/17 02:36:50;;;;;;;0.40;0.40;;;12.10;99.90;;;;;;5051430;28;20447;-69
2022/09/17 02:39:38;;;;;;;0.40;0.40;;;12.10;99.90;;;;;;5052315;28;20805;-67
2022/09/17 02:42:37;;;;;;;0.57;0.57;;;12.10;99.90;;;;;;5052602;28;20431;-67
2022/09/17 02:45:35;;;;;;;0.50;0.50;;;12.20;99.90;;;;;;5052318;28;20518;-69
2022/09/17 02:48:43;;;;;;;0.40;0.40;;;12.20;99.90;;;;;;5053133;28;20963;-69
2022/09/17 02:51:38;;;;;;;0.60;0.60;;;12.20;99.90;;;;;;5056560;28;20519;-68
2022/09/17 02:54:32;;;;;;;0.40;0.40;;;12.20;99.90;;;;;;5055597;28;20491;-67
2022/09/17 02:57:28;;;;;;;0.60;0.60;;;12.20;99.90;;;;;;5068499;28;20437;-68
2022/09/17 03:00:19;;;;;;;0.40;0.40;;;12.20;99.90;;;;;;5077129;28;20518;-67
2022/09/17 03:03:12;;;;;;;0.50;0.50;;;12.20;99.90;;;;;;5076923;28;20427;-68
2022/09/17 03:06:00;;;;;;;2.40;0.90;;;12.20;99.90;;;;;;5077309;28;20510;-70
2022/09/17 03:08:49;;;;;;;0.60;0.60;;;12.20;99.90;;;;;;5076313;28;20932;-67
2022/09/17 03:11:37;;;;;;;0.40;0.40;;;12.20;99.90;;;;;;5076931;28;20428;-67
2022/09/17 03:14:25;;;;;;;0.50;0.50;;;12.20;99.90;;;;;;5077320;28;20510;-67
2022/09/17 03:17:15;;;;;;;0.40;0.40;;;12.20;99.90;;;;;;5076559;28;20441;-67
2022/09/17 03:20:03;;;;;;;0.50;0.50;;;12.20;99.90;;;;;;5075847;28;20513;-68
2022/09/17 03:22:52;;;;;;;0.67;0.67;;;12.20;99.90;;;;;;5076691;28;20430;-67
2022/09/17 03:25:40;;;;;;;0.50;0.50;;;12.20;99.90;;;;;;5075411;28;20450;-66
2022/09/17 03:28:28;;;;;;;6.60;1.13;;;12.10;99.90;;;;;;5076242;28;20451;-68
2022/09/17 03:31:16;;;;;;;0.50;0.50;;;12.10;99.90;;;;;;5075254;28;20871;-67
2022/09/17 03:34:06;;;;;;;0.40;0.40;;;12.10;99.90;;;;;;5076289;28;20427;-67
2022/09/17 03:36:54;;;;;;;0.40;0.40;;;12.10;99.90;;;;;;5075794;28;20451;-67
2022/09/17 03:39:42;;;;;;;0.40;0.40;;;12.10;99.90;;;;;;5075643;28;20506;-68
2022/09/17 03:42:30;;;;;;;0.40;0.40;;;12.10;99.90;;;;;;5074794;28;20431;-67
2022/09/17 03:45:18;;;;;;;0.40;0.40;;;12.10;99.90;;;;;;5075599;28;20556;-66
2022/09/17 03:48:06;;;;;;;0.50;0.50;;;12.00;99.90;;;;;;5075715;28;20451;-70
2022/09/17 03:50:55;;;;;;;0.50;0.50;;;12.00;99.90;;;;;;5075391;28;20427;-66
2022/09/17 03:53:43;;;;;;;0.40;0.40;;;12.10;99.90;;;;;;5076202;28;20524;-68
2022/09/17 03:56:31;;;;;;;1.73;1.73;;;12.00;99.90;;;;;;5071838;28;20445;-68
2022/09/17 03:59:19;;;;;;;0.50;0.50;;;12.00;99.90;;;;;;5055259;28;20424;-68
2022/09/17 04:02:08;;;;;;;0.50;0.50;;;12.00;99.90;;;;;;5054329;28;20519;-66
2022/09/17 04:04:56;;;;;;;0.50;0.50;;;12.00;99.90;;;;;;5054902;28;20471;-69
2022/09/17 04:07:45;;;;;;;1.00;0.60;;;12.00;99.90;;;;;;5055143;28;20798;-70
2022/09/17 04:10:34;;;;;;;0.40;0.40;;;;;;;;;;5054668;28;20420;-68
2022/09/17 04:13:22;;;;;;;0.60;0.50;;;12.00;99.90;;;;;;5055266;28;20842;-68
2022/09/17 04:16:11;;;;;;;0.40;0.40;;;12.00;99.90;;;;;;5054970;28;20825;-69
2022/09/17 04:18:59;;;;;;;2.77;1.27;;;12.00;99.90;;;;;;5054626;28;20458;-66
2022/09/17 04:21:47;;;;;;;0.40;0.40;;;12.00;99.90;;;;;;5054505;28;20424;-66
2022/09/17 04:24:36;;;;;;;1.90;1.80;;;12.00;99.90;;;;;;5054839;28;20463;-67
2022/09/17 04:27:24;;;;;;;0.40;0.40;;;12.10;99.90;;;;;;5055134;28;20528;-69
2022/09/17 04:30:13;;;;;;;0.40;0.40;;;12.10;99.90;;;;;;5053994;28;20431;-67
2022/09/17 04:33:01;;;;;;;0.40;0.40;;;12.00;99.90;;;;;;5054322;28;20452;-68
2022/09/17 04:35:49;;;;;;;0.40;0.40;;;12.10;99.90;;;;;;5055232;28;20472;-66
2022/09/17 04:38:37;;;;;;;0.50;0.50;;;12.10;99.90;;;;;;5054526;28;20511;-68
2022/09/17 04:41:27;;;;;;;1.23;0.50;;;12.10;99.90;;;;;;5054833;28;20435;-68
2022/09/17 04:44:15;;;;;;;0.50;0.50;;;12.10;99.90;;;;;;5055115;28;20480;-67
2022/09/17 04:47:04;;;;;;;0.43;0.43;;;12.20;99.90;;;;;;5054854;28;20519;-67
2022/09/17 04:49:52;;;;;;;0.70;0.50;;;12.20;99.90;;;;;;5054208;28;20519;-67
2022/09/17 04:52:42;;;;;;;0.40;0.40;;;12.20;99.90;;;;;;5054104;28;20421;-67
2022/09/17 04:55:30;;;;;;;0.60;0.60;;;12.20;99.90;;;;;;5054464;28;20880;-67
2022/09/17 04:58:19;;;;;;;14.83;0.80;;;12.10;99.90;;;;;;5073425;28;20423;-67
2022/09/17 05:01:08;;;;;;;1.03;1.03;;;12.10;99.90;;;;;;5074510;28;20438;-67
2022/09/17 05:03:56;;;;;;;0.40;0.40;;;12.20;99.90;;;;;;5074454;28;20810;-69
2022/09/17 05:06:44;;;;;;;0.50;0.50;;;12.20;99.90;;;;;;5073806;28;20862;-68
2022/09/17 05:09:32;;;;;;;0.40;0.40;;;12.20;99.90;;;;;;5075540;28;20427;-68
2022/09/17 05:12:20;;;;;;;0.40;0.40;;;12.20;99.90;;;;;;5074427;28;20510;-67
2022/09/17 05:15:10;;;;;;;0.40;0.40;;;12.10;99.90;;;;;;5074240;28;20493;-67
2022/09/17 05:17:58;;;;;;;0.50;0.50;;;12.10;99.90;;;;;;5073331;28;20420;-68
2022/09/17 05:20:46;;;;;;;0.40;0.40;;;12.00;99.90;;;;;;5073572;28;20420;-67
2022/09/17 05:23:34;;;;;;;0.50;0.50;;;12.00;99.90;;;;;;5073364;28;20420;-68
2022/09/17 05:26:22;;;;;;;0.40;0.40;;;12.00;99.90;;;;;;5073837;28;20561;-67
2022/09/17 05:29:10;;;;;;;0.50;0.50;;;11.90;99.90;;;;;;5073245;28;20437;-69
2022/09/17 05:31:59;;;;;;;0.47;0.47;;;11.90;99.90;;;;;;5073351;28;20511;-67
2022/09/17 05:34:47;;;;;;;0.40;0.40;;;11.90;99.90;;;;;;5073324;28;20419;-67
2022/09/17 05:37:36;;;;;;;0.80;0.80;;;11.90;99.90;;;;;;5073696;28;21051;-67
2022/09/17 05:40:24;;;;;;;0.40;0.40;;;11.90;99.90;;;;;;5072794;28;20510;-68
2022/09/17 05:43:12;;;;;;;0.50;0.50;;;11.90;99.90;;;;;;5073414;28;20431;-66
2022/09/17 05:46:02;;;;;;;0.50;0.50;;;11.90;99.90;;;;;;5073099;28;21001;-67
2022/09/17 05:48:51;;;;;;;0.40;0.40;;;11.90;99.90;;;;;;5072708;28;20427;-67
2022/09/17 05:51:39;;;;;;;0.50;0.50;;;12.00;99.90;;;;;;5071975;28;20419;-67
2022/09/17 05:54:27;;;;;;;0.93;0.93;;;12.10;99.90;;;;;;5073839;28;20447;-68
2022/09/17 05:57:15;;;;;;;0.67;0.60;;;12.10;99.90;;;;;;5061557;28;20460;-67
2022/09/17 06:00:05;;;;;;;0.90;0.90;;;12.10;99.90;;;;;;5052582;28;20438;-67
2022/09/17 06:02:57;;;;;;;0.40;0.40;;;12.10;99.90;;;;;;5071854;28;20437;-67
2022/09/17 06:05:53;;;;;;;1.70;1.60;;;12.20;99.90;;;;;;5073032;28;20901;-67
2022/09/17 06:08:41;;;;;;;0.40;0.40;;;12.20;99.90;;;;;;5073706;28;20856;-66
2022/09/17 06:11:29;;;;;;;0.50;0.50;;;12.30;99.90;;;;;;5073149;28;20969;-68
2022/09/17 06:14:17;;;;;;;0.40;0.40;;;12.30;99.90;;;;;;5073114;28;20426;-68
2022/09/17 06:17:05;;;;;;;0.43;0.43;;;12.30;99.90;;;;;;5072918;28;20432;-67
2022/09/17 06:19:53;;;;;;;0.40;0.40;;;12.40;99.90;;;;;;5073058;28;20572;-66
2022/09/17 06:22:42;;;;;;;0.50;0.50;;;12.40;99.90;;;;;;5073510;28;20510;-68
2022/09/17 06:25:31;;;;;;;1.03;0.60;;;12.40;99.90;;;;;;5073208;28;20477;-68
2022/09/17 06:28:19;;;;;;;0.50;0.50;;;12.50;99.90;;;;;;5074034;28;20917;-66
2022/09/17 06:31:09;;;;;;;0.50;0.50;;;12.50;99.90;;;;;;5072713;28;20810;-67
2022/09/17 06:33:57;;;;;;;37.10;2.97;;;12.50;99.90;;;;;;5072323;28;20509;-67
2022/09/17 06:36:45;;;;;;;0.60;0.60;;;12.60;99.90;;;;;;5073128;28;20514;-68
2022/09/17 06:39:35;;;;;;;0.83;0.83;;;12.70;99.90;;;;;;5072471;28;20499;-67
2022/09/17 06:42:23;;;;;;;0.77;0.70;;;12.70;99.90;;;;;;5073632;28;20419;-67
2022/09/17 06:45:11;;;;;;;0.70;0.70;;;12.80;99.90;;;;;;5073629;28;20465;-68
2022/09/17 06:48:05;;;;;;;0.70;0.50;;;12.80;99.90;;;;;;5073727;28;20882;-67
2022/09/17 06:50:53;;;;;;;0.50;0.50;;;12.80;99.90;;;;;;5072437;28;20943;-68
2022/09/17 06:53:41;;;;;;;0.60;0.50;;;11.50;99.90;;;;;;5073460;28;20491;-68
2022/09/17 06:56:33;;;;;;;2.77;0.73;;;13.00;99.90;;;;;;5072177;28;20531;-68
2022/09/17 06:59:21;;;;;;;0.50;0.50;;;13.10;99.90;;;;;;5073665;28;20431;-68
2022/09/17 07:02:09;;;;;;;0.73;0.70;;;13.10;99.90;;;;;;5077523;28;20419;-69
2022/09/17 07:04:57;;;;;;;1.37;0.70;;;13.20;99.90;;;;;;5081613;28;20442;-68
2022/09/17 07:07:45;;;;;;;0.50;0.50;;;13.40;99.90;;;;;;5076820;28;20412;-67
2022/09/17 07:10:33;;;;;;;1.60;0.70;;;13.60;99.90;;;;;;5072015;28;20424;-67
2022/09/17 07:13:23;;;;;;;0.40;0.40;;;13.50;99.90;;;;;;5072263;28;20416;-67
2022/09/17 07:16:11;;;;;;;0.60;0.60;;;13.50;99.90;;;;;;5072716;28;20526;-67
2022/09/17 07:19:00;;;;;;;0.70;0.70;;;13.60;99.90;;;;;;5072838;28;20427;-68
2022/09/17 07:21:48;;;;;;;0.40;0.40;;;13.70;99.90;;;;;;5072411;28;20422;-66
2022/09/17 07:24:36;;;;;;;0.60;0.60;;;13.60;99.90;;;;;;5072993;28;20423;-68
2022/09/17 07:27:27;;;;;;;0.50;0.50;;;13.60;99.90;;;;;;5072599;28;20463;-67
2022/09/17 07:30:17;;;;;;;0.60;0.60;;;13.60;99.90;;;;;;5072914;28;20427;-67
2022/09/17 07:33:05;;;;;;;0.50;0.50;;;13.70;99.90;;;;;;5071856;28;20426;-67
2022/09/17 07:35:54;;;;;;;1.20;0.60;;;13.70;99.90;;;;;;5073349;28;20580;-68
2022/09/17 07:38:42;;;;;;;0.50;0.50;;;13.70;99.90;;;;;;5075687;28;20425;-67
2022/09/17 07:41:31;;;;;;;0.40;0.40;;;13.70;99.90;;;;;;5076378;28;20515;-67
2022/09/17 07:44:20;;;;;;;1.00;1.00;;;13.60;99.90;;;;;;5075837;28;20518;-69
2022/09/17 07:47:10;;;;;;;1.27;0.87;;;13.70;99.90;;;;;;5074996;28;20455;-67
2022/09/17 07:49:58;;;;;;;4.67;0.70;;;13.70;99.90;;;;;;5074746;28;20423;-68
2022/09/17 07:52:47;;;;;;;1.13;1.03;;;13.70;99.90;;;;;;5075650;28;20455;-68
2022/09/17 07:55:35;;;;;;;1.00;0.60;;;13.80;99.90;;;;;;5075602;28;20914;-68
2022/09/17 07:58:28;;;;;;;0.40;0.40;;;13.80;99.90;;;;;;5057037;28;20433;-67
2022/09/17 08:01:17;;;;;;;0.73;0.60;;;13.80;99.90;;;;;;5055877;28;20948;-67
2022/09/17 08:04:07;;;;;;;0.50;0.50;;;13.90;99.90;;;;;;5056568;28;20432;-69
2022/09/17 08:06:55;;;;;;;0.40;0.40;;;13.90;99.90;;;;;;5055775;28;20478;-67
2022/09/17 08:09:43;;;;;;;1.63;1.10;;;13.90;99.90;;;;;;5056288;28;20511;-68
2022/09/17 08:12:31;;;;;;;0.47;0.47;;;13.90;99.90;;;;;;5056199;28;20443;-68
2022/09/17 08:15:19;;;;;;;0.50;0.50;;;14.00;99.90;;;;;;5056822;28;20530;-68
2022/09/17 08:18:07;;;;;;;0.50;0.50;;;14.30;99.90;;;;;;5056481;28;20499;-68
2022/09/17 08:21:00;;;;;;;0.50;0.50;;;14.30;99.90;;;;;;5056287;28;20562;-68
2022/09/17 08:23:49;;;;;;;0.40;0.40;;;14.20;99.90;;;;;;5056625;28;20519;-67
2022/09/17 08:26:37;;;;;;;3.50;1.10;;;14.10;99.90;;;;;;5055484;28;20482;-68
2022/09/17 08:29:25;;;;;;;0.60;0.60;;;14.20;99.90;;;;;;5055969;28;20972;-66
2022/09/17 08:32:13;;;;;;;1.43;0.60;;;14.20;99.90;;;;;;5055553;28;20424;-67
2022/09/17 08:35:02;;;;;;;0.50;0.50;;;14.10;99.90;;;;;;5056046;28;20535;-68
2022/09/17 08:37:54;;;;;;;0.60;0.60;;;14.10;99.90;;;;;;5056056;28;20777;-67
2022/09/17 08:40:50;;;;;;;0.43;0.43;;;14.20;99.90;;;;;;5055050;28;20431;-68
2022/09/17 08:43:44;;;;;;;4.10;2.00;;;14.10;99.90;;;;;;5056035;28;20423;-67
2022/09/17 08:46:36;;;;;;;0.60;0.60;;;14.20;99.90;;;;;;5056154;28;20995;-67
2022/09/17 08:49:32;;;;;;;0.90;0.90;;;14.20;99.90;;;;;;5055475;28;20786;-68
2022/09/17 08:52:41;;;;;;;1.53;0.60;;;14.40;99.90;;;;;;5056020;28;20478;-68
2022/09/17 08:55:39;;;;;;;8.13;0.90;;;14.70;99.90;;;;;;5055822;28;20440;-68
2022/09/17 08:58:56;;;;;;;1.73;1.00;;;14.70;99.90;;;;;;5074766;28;20452;-67
2022/09/17 09:01:57;;;;;;;0.40;0.40;;;14.80;99.90;;;;;;5076011;28;20477;-68
2022/09/17 09:05:08;;;;;;;0.60;0.60;;;14.60;99.90;;;;;;5076307;28;20513;-68
2022/09/17 09:08:03;;;;;;;0.50;0.50;;;14.50;99.90;;;;;;5075387;28;20473;-67
2022/09/17 09:10:54;;;;;;;0.90;0.73;;;14.40;99.90;;;;;;5074867;28;20517;-67
2022/09/17 09:13:47;;;;;;;1.00;1.00;;;14.40;99.90;;;;;;5074342;28;20966;-67
2022/09/17 09:16:41;;;;;;;1.67;0.70;;;14.50;99.90;;;;;;5075243;28;20470;-67
2022/09/17 09:19:33;;;;;;;3.40;0.90;;;14.60;99.90;;;;;;5073847;28;20445;-68
2022/09/17 09:22:48;;;;;;;0.40;0.40;;;14.80;99.90;;;;;;5075652;28;20416;-67
2022/09/17 09:25:43;;;;;;;0.50;0.50;;;15.10;99.90;;;;;;5075907;28;20465;-66
2022/09/17 09:28:49;;;;;;;4.33;1.00;;;15.30;99.90;;;;;;5074669;28;20865;-67
2022/09/17 09:32:04;;;;;;;0.70;0.50;;;15.30;99.90;;;;;;5074996;28;20530;-68
2022/09/17 09:35:15;;;;;;;0.40;0.40;;;15.40;99.90;;;;;;5076562;28;20468;-67
2022/09/17 09:38:12;;;;;;;2.20;0.87;;;15.40;99.90;;;;;;5075277;28;20427;-67
2022/09/17 09:41:06;;;;;;;0.50;0.50;;;15.40;99.90;;;;;;5073558;28;20859;-67
2022/09/17 09:44:02;;;;;;;0.50;0.50;;;15.40;99.90;;;;;;5074127;28;20424;-67
2022/09/17 09:47:16;;;;;;;0.50;0.50;;;15.50;99.90;;;;;;5074547;28;20462;-68
2022/09/17 09:50:22;;;;;;;0.50;0.50;;;15.60;99.90;;;;;;5075183;28;20427;-67
2022/09/17 09:53:22;;;;;;;0.77;0.77;;;15.60;99.90;;;;;;5075952;28;20481;-67
2022/09/17 09:56:27;;;;;;;4.73;1.53;;;15.40;99.90;;;;;;5072188;28;20882;-67
2022/09/17 09:59:18;;;;;;;0.50;0.50;;;15.50;99.90;;;;;;5053532;28;20233;-68
2022/09/17 10:02:07;;;;;;;0.50;0.50;;;15.60;99.90;;;;;;5054272;28;20913;-67
2022/09/17 10:05:07;;;;;;;0.50;0.50;;;15.50;99.90;;;;;;5053556;28;20462;-67
2022/09/17 10:07:55;;;;;;;0.40;0.40;;;15.00;99.90;;;;;;5053740;28;20550;-66
2022/09/17 10:10:55;;;;;;;1.27;1.17;;;14.60;99.90;;;;;;5052123;28;20503;-67
2022/09/17 10:13:43;;;;;;;2.50;0.97;;;14.50;99.90;;;;;;5052710;28;20425;-67
2022/09/17 10:16:35;;;;;;;0.50;0.50;;;14.40;99.90;;;;;;5053274;28;21050;-68
2022/09/17 10:19:24;;;;;;;1.50;0.70;;;14.70;99.90;;;;;;5052992;28;20435;-67
2022/09/17 10:22:24;;;;;;;1.60;0.50;;;15.10;99.90;;;;;;5053866;28;20416;-67
2022/09/17 10:25:28;;;;;;;2.40;0.83;;;15.10;99.90;;;;;;5053663;28;20984;-67
2022/09/17 10:28:33;;;;;;;1.07;0.70;;;15.00;99.90;;;;;;5054066;28;20467;-66
2022/09/17 10:31:22;;;;;;;1.90;0.60;;;15.30;99.90;;;;;;5054081;28;20427;-68
2022/09/17 10:34:19;;;;;;;0.70;0.70;;;15.40;99.90;;;;;;5055064;28;20434;-67
2022/09/17 10:37:32;;;;;;;4.53;1.03;;;15.40;99.90;;;;;;5053470;28;20525;-67
2022/09/17 10:40:32;;;;;;;9.03;1.33;;;15.30;99.90;;;;;;5053561;28;20420;-67
2022/09/17 10:43:23;;;;;;;0.60;0.60;;;15.40;99.90;;;;;;5054610;28;20424;-67
2022/09/17 10:46:16;;;;;;;0.40;0.40;;;15.50;99.90;;;;;;5054401;28;20448;-68
2022/09/17 10:49:12;;;;;;;0.40;0.40;;;15.60;99.90;;;;;;5053566;28;20517;-68
2022/09/17 10:52:09;;;;;;;0.63;0.63;;;15.50;99.90;;;;;;5053271;28;20424;-68
2022/09/17 10:55:22;;;;;;;4.47;1.47;;;15.70;99.90;;;;;;5052954;28;20450;-67
2022/09/17 10:58:24;;;;;;;0.53;0.50;;;15.70;99.90;;;;;;5071591;28;20459;-68
2022/09/17 11:01:27;;;;;;;1.37;0.70;;;15.50;99.90;;;;;;5073069;28;20435;-67
2022/09/17 11:04:29;;;;;;;1.37;1.23;;;15.30;99.90;;;;;;5072901;28;20809;-68
2022/09/17 11:07:34;;;;;;;1.77;1.67;;;14.70;99.90;;;;;;5072573;28;20511;-67
2022/09/17 11:10:29;;;;;;;0.47;0.47;;;14.30;99.90;;;;;;5073179;28;20961;-67
2022/09/17 11:13:27;;;;;;;0.80;0.50;;;14.30;99.90;;;;;;5077371;28;20419;-68
2022/09/17 11:16:29;;;;;;;0.50;0.50;;;14.30;99.90;;;;;;5076353;28;20447;-68
2022/09/17 11:19:30;;;;;;;0.50;0.50;;;14.50;99.90;;;;;;5077362;28;20475;-68
2022/09/17 11:22:24;;;;;;;0.83;0.80;;;14.60;99.90;;;;;;5076928;28;20557;-67
2022/09/17 11:25:50;;;;;;;0.60;0.60;;;14.80;99.90;;;;;;5078373;28;20979;-68
2022/09/17 11:28:52;;;;;;;0.60;0.57;;;14.90;99.90;;;;;;5077560;28;20454;-68
2022/09/17 11:31:54;;;;;;;0.60;0.50;;;15.10;99.90;;;;;;5079318;28;20419;-68
2022/09/17 11:34:52;;;;;;;0.60;0.50;;;15.30;99.90;;;;;;5077675;28;20484;-68
2022/09/17 11:37:47;;;;;;;0.40;0.40;;;15.60;99.90;;;;;;5076927;28;20502;-67
2022/09/17 11:40:40;;;;;;;0.40;0.40;;;15.90;99.90;;;;;;5075047;28;20430;-68
2022/09/17 11:43:32;;;;;;;2.30;1.00;;;16.10;99.90;;;;;;5076115;28;20531;-67
2022/09/17 11:46:24;;;;;;;0.50;0.50;;;16.10;99.90;;;;;;5076068;28;20443;-68
2022/09/17 11:49:20;;;;;;;0.50;0.50;;;16.00;99.90;;;;;;5076454;28;20461;-67
2022/09/17 11:52:18;;;;;;;0.40;0.40;;;16.00;99.90;;;;;;5077131;28;20437;-67
2022/09/17 11:55:20;;;;;;;0.50;0.50;;;15.90;99.90;;;;;;5076861;28;20227;-66
2022/09/17 11:58:15;;;;;;;0.70;0.57;;;16.00;99.90;;;;;;5058247;28;21012;-67
2022/09/17 12:01:09;;;;;;;0.50;0.50;;;16.00;99.90;;;;;;5056068;28;20430;-68
2022/09/17 12:04:02;;;;;;;0.93;0.80;;;16.20;99.90;;;;;;5055913;28;20504;-67
2022/09/17 12:06:57;;;;;;;0.40;0.40;;;16.00;99.90;;;;;;5056060;28;20225;-66
2022/09/17 12:09:53;;;;;;;0.43;0.40;;;15.20;99.90;;;;;;5055354;28;20314;-67
2022/09/17 12:12:47;;;;;;;0.83;0.70;;;14.80;99.90;;;;;;5056444;28;20515;-67
2022/09/17 12:15:42;;;;;;;6.37;0.70;;;14.80;99.90;;;;;;5055474;28;20594;-67
2022/09/17 12:18:43;;;;;;;0.40;0.40;;;14.70;99.90;;;;;;5055821;28;20447;-69
2022/09/17 12:21:37;;;;;;;0.50;0.50;;;14.80;99.90;;;;;;5054877;28;20427;-66
2022/09/17 12:24:27;;;;;;;0.40;0.40;;;15.10;99.90;;;;;;5054507;28;20428;-67
2022/09/17 12:27:25;;;;;;;2.93;0.67;;;15.60;99.90;;;;;;5054085;28;20480;-67
2022/09/17 12:30:14;;;;;;;1.60;0.50;;;15.90;99.90;;;;;;5052516;28;20453;-69
2022/09/17 12:33:24;;;;;;;45.03;3.03;;;16.30;99.90;;;;;;5054100;28;20436;-70
2022/09/17 12:36:27;;;;;;;1.33;0.50;;;16.70;99.90;;;;;;5052001;28;20513;-68
2022/09/17 12:39:53;;;;;;;0.70;0.50;;;17.00;99.90;;;;;;5053281;28;20428;-68
2022/09/17 12:42:56;;;;;;;2.43;0.60;;;16.90;99.90;;;;;;5055326;28;20220;-67
2022/09/17 12:46:03;;;;;;;1.47;0.70;;;16.40;99.90;;;;;;5054941;28;20589;-67
2022/09/17 12:49:08;;;;;;;0.40;0.40;;;15.80;99.90;;;;;;5054365;28;20331;-67
2022/09/17 12:51:59;;;;;;;0.50;0.50;;;15.70;99.90;;;;;;5054770;28;20509;-67
2022/09/17 12:55:17;;;;;;;0.40;0.40;;;15.80;99.90;;;;;;5055440;28;20932;-66
2022/09/17 12:58:23;;;;;;;0.50;0.50;;;15.80;99.90;;;;;;5072107;28;20446;-67
2022/09/17 13:01:18;;;;;;;0.50;0.50;;;15.90;99.90;;;;;;5076033;28;20481;-66
2022/09/17 13:04:20;;;;;;;0.40;0.40;;;15.90;99.90;;;;;;5074904;28;20423;-66
2022/09/17 13:07:56;;;;;;;0.40;0.40;;;16.10;99.90;;;;;;5075490;28;20809;-67
2022/09/17 13:11:01;;;;;;;0.40;0.40;;;16.20;99.90;;;;;;5074111;28;20505;-67
2022/09/17 13:14:01;;;;;;;0.40;0.40;;;16.80;99.90;;;;;;5072355;28;20431;-68
2022/09/17 13:16:55;;;;;;;0.40;0.40;;;17.00;99.90;;;;;;5073031;28;20366;-70
2022/09/17 13:19:51;;;;;;;0.60;0.60;;;17.40;99.90;;;;;;5072145;28;20207;-69
2022/09/17 13:22:45;;;;;;;0.50;0.50;;;17.70;99.90;;;;;;5071945;28;20346;-70
2022/09/17 13:25:33;;;;;;;0.40;0.40;;;17.70;99.90;;;;;;5071794;28;20225;-70
2022/09/17 13:28:21;;;;;;;0.40;0.40;;;17.90;99.90;;;;;;5072892;28;20221;-69
2022/09/17 13:31:11;;;;;;;0.50;0.50;;;18.50;99.90;;;;;;5072259;28;20208;-68
2022/09/17 13:34:00;;;;;;;0.40;0.40;;;19.00;99.90;;;;;;5071135;28;20205;-71
2022/09/17 13:36:50;;;;;;;0.40;0.40;;;19.30;99.90;;;;;;5071790;28;20220;-69
2022/09/17 13:39:45;;;;;;;0.40;0.40;;;19.40;99.90;;;;;;5072081;28;20224;-69
2022/09/17 13:42:45;;;;;;;23.50;1.40;;;19.80;99.90;;;;;;5071226;28;20315;-68
2022/09/17 13:45:54;;;;;;;0.50;0.50;;;20.10;99.90;;;;;;5071523;28;20213;-69
2022/09/17 13:48:52;;;;;;;1.75;1.65;;;20.00;99.90;;;;;;5071426;28;20227;-70
2022/09/17 13:51:53;;;;;;;3.17;0.98;;;20.60;99.90;;;;;;5071485;28;20581;-67
2022/09/17 13:54:42;;;;;;;0.40;0.40;;;21.30;97.50;;;;;;5071599;28;20200;-68
2022/09/17 13:57:33;;;;;;;0.65;0.65;;;21.50;96.70;;;;;;5059149;28;20262;-68
2022/09/17 14:00:47;;;;;;;0.40;0.40;;;21.10;95.70;;;;;;5051135;28;20308;-70
2022/09/17 14:03:55;;;;;;;2.25;0.68;;;20.20;96.60;;;;;;5051694;28;20687;-71
2022/09/17 14:06:52;;;;;;;0.40;0.40;;;20.10;96.10;;;;;;5051385;28;20221;-70
2022/09/17 14:09:51;;;;;;;1.70;0.90;;;19.00;97.90;;;;;;5051024;28;20228;-69
2022/09/17 14:13:40;;;;;;;1.35;0.50;;;18.20;99.50;;;;;;5052436;28;20225;-67
2022/09/17 14:16:45;;;;;;;0.50;0.40;;;18.70;99.90;;;;;;5033867;28;20315;-71
2022/09/17 14:19:45;;;;;;;0.52;0.50;;;20.20;99.00;;;;;;5050303;28;20204;-68
2022/09/17 14:22:38;;;;;;;7.97;3.45;;;20.70;97.40;;;;;;5050724;28;20316;-70
2022/09/17 14:25:35;;;;;;;0.60;0.60;;;20.20;97.50;;;;;;5050658;28;20236;-68
2022/09/17 14:28:32;;;;;;;0.50;0.50;;;20.20;98.10;;;;;;5050014;28;20206;-68
2022/09/17 14:31:27;;;;;;;1.20;0.70;;;20.40;97.60;;;;;;5050916;28;20201;-72
2022/09/17 14:34:20;;;;;;;2.55;0.80;;;20.40;97.80;;;;;;5049937;28;20201;-68
2022/09/17 14:37:15;;;;;;;0.50;0.40;;;19.80;98.70;;;;;;5050352;28;20327;-68
2022/09/17 14:40:09;;;;;;;0.50;0.50;;;19.00;99.90;;;;;;5050760;28;20669;-70
2022/09/17 14:42:58;;;;;;;2.55;2.45;;;18.50;99.90;;;;;;5050386;28;20270;-70
2022/09/17 14:45:51;;;;;;;5.18;3.30;;;18.10;99.90;;;;;;5049725;28;20225;-70
2022/09/17 14:48:39;;;;;;;0.50;0.50;;;17.90;99.90;;;;;;5054527;28;20676;-71
2022/09/17 14:51:29;;;;;;;0.60;0.60;;;17.80;99.90;;;;;;5055252;28;20193;-67
2022/09/17 14:54:21;;;;;;;0.40;0.40;;;17.60;99.90;;;;;;5056856;28;20280;-67
2022/09/17 14:57:22;;;;;;;0.40;0.40;;;17.30;99.90;;;;;;5066706;28;20329;-67
2022/09/17 15:00:17;;;;;;;0.40;0.40;;;16.90;99.90;;;;;;5078329;28;20632;-67
2022/09/17 15:03:05;;;;;;;0.40;0.40;;;16.40;99.90;;;;;;5076750;28;20204;-67
2022/09/17 15:05:54;;;;;;;0.40;0.40;;;16.30;99.90;;;;;;5076986;28;20216;-66